Hovedside
METAR-TAF:

METAR-TAF

Lufthavner :

Såtenäs, Sverige

breddegrad: 58-26N, lengdegrad: 012-42E, høyde over havet: 54 m

Gjeldene værobservasjon

Denne rapporten ble laget for 39 minutter siden, klokken 07:50 UTC
Vind 3 kt fra Sørøst
Temperatur -6°C
Luftfuktighet 100%
Trykk 1013 hPa
Sikt 10 km eller mer
Grunne tåke

METAR: ESIB 220750Z 13003KT 9999 1100// R01/0650V1900U R19/P2000N MIFG NSC M06/M06 Q1013

Tid: 09:29 (08:29 UTC)

Varsel

Denne rapporten ble laget for 2 timer og 39 minutter siden, klokken 05:50 UTC
Varsel gyldig fra 22. klokken 06 UTC til 22. klokken 15 UTC
Vind 5 kt fra Øst-sørøst
Sikt 10 km eller mer
Brutte skyer i en høyde av 2500 ft

TAF: ESIB 220550Z 2206/2215 12005KT 9999 BKN025 RMK MIL

Værobservasjoner og værvarsel for over 4000 flyplasser (METAR- og TAF-rapporter).

Tilgjengelige stasjoner er representert av de røde og gule prikkene på kartet.

Hold musepekeren over prikken for å se navnet på stasjonen.

Klikk så for å se værobservasjoner og -varsler.

For å forandre kartet kan du klikke på den grønne knappen med svart kryss for å zoome inn, på den grønne knappen med strek for å zoome ut, eller på de grønne pilene for å se tilstøtende kart.


METAR-TAF: